Portada
METAR-TAF:

METAR-TAF

Aeroports :

Mataram, Indonèsia

latitud: 08-45-29S, longitud: 116-16-35E, altitud: 97 m

Observació

L'informe es va fer fa 13 minuts, a les 03:00 UTC
Vent 13 kt del Sud-Est, variant entre Est i Sud
Temperatura 32°C
Humitat 56%
Pressió 1011 hPa
Visibilitat: 8000 m
Núvols disperses a una alçada de 1600 ft

METAR: WADL 300300Z 13013KT 100V170 8000 SCT016 32/22 Q1011 NOSIG

Hora: 10:13 (03:13 UTC)

Pronòstic

L'informe es va fer fa 4 hores i 13 minuts, a les 23:00 UTC
Pronòstic vàlid del 30 a les 00 UTC al 30 a les 24 UTC
Vent 11 kt del Sud-Est
Visibilitat: 8000 m
Cel ennuvolat a una alçada de 1600 ft

TAF: WADL 292300Z 3000/3024 14011KT 8000 BKN016

Observacions i pronòstics meteorològics de més de 4000 aeroports (METAR i TAF).

Les estacions disponibles són els punts grocs i vermells al mapa.

Posi el ratolí al punt desitjat per veure el nom de l'estació.

Feu clic per veure les observacions i els pronòstics meteorològics.

Per canviar el mapa: feu clic els botons verds amb una creu de color negre per apropar; al botó verd amb un guió per allunyar la imatge; o en les fletxes verdes per a mapes adjacents.


METAR-TAF: